Time;durP1;ratioP1;P1;durP2;ratioP2;P2;SDS_P1;SDS_P2;PMS_P1;PMS_P2;Temp;Humidity;BMP_temperature;BMP_pressure;BME280_temperature;BME280_humidity;BME280_pressure;Samples;Min_cycle;Max_cycle;Signal;HPM_P1;HPM_P2
2021/05/08 00:02:24;;;;;;;4.13;2.58;;;3.40;99.90;;;;;;5023994;28;20033;-78
2021/05/08 00:05:11;;;;;;;4.78;2.33;;;3.30;99.90;;;;;;5008619;28;20033;-78
2021/05/08 00:07:36;;;;;;;4.78;2.80;;;3.30;99.90;;;;;;4931687;29;20066;-78
2021/05/08 00:10:09;;;;;;;5.28;3.20;;;3.20;99.90;;;;;;4964006;29;20063;-78
2021/05/08 00:12:35;;;;;;;5.28;2.40;;;3.30;99.90;;;;;;4963782;28;20047;-78
2021/05/08 00:15:01;;;;;;;4.35;2.65;;;3.20;99.90;;;;;;4963848;29;20031;-78
2021/05/08 00:17:26;;;;;;;6.82;2.95;;;3.20;99.90;;;;;;4947809;29;20142;-78
2021/05/08 00:19:52;;;;;;;4.35;3.15;;;3.20;99.90;;;;;;4963517;29;20035;-78
2021/05/08 00:22:18;;;;;;;4.40;3.40;;;3.20;99.90;;;;;;4963637;29;20031;-78
2021/05/08 00:24:43;;;;;;;3.97;3.08;;;3.10;99.90;;;;;;4948812;29;20051;-78
2021/05/08 00:27:09;;;;;;;4.72;2.80;;;3.10;99.90;;;;;;4963202;29;20031;-77
2021/05/08 00:29:34;;;;;;;4.57;2.53;;;3.10;99.90;;;;;;4963630;29;20055;-77
2021/05/08 00:32:00;;;;;;;5.55;3.20;;;3.10;99.90;;;;;;4963316;29;20031;-78
2021/05/08 00:34:25;;;;;;;5.63;3.30;;;3.10;99.90;;;;;;4963699;28;20043;-78
2021/05/08 00:36:51;;;;;;;5.72;3.22;;;3.10;99.90;;;;;;4963233;29;20047;-78
2021/05/08 00:39:17;;;;;;;6.82;3.47;;;3.10;99.90;;;;;;4963468;29;20118;-78
2021/05/08 00:41:42;;;;;;;5.72;2.80;;;3.00;99.90;;;;;;4947391;29;20036;-78
2021/05/08 00:44:08;;;;;;;6.32;3.65;;;3.10;99.90;;;;;;4979792;28;20029;-78
2021/05/08 00:46:35;;;;;;;5.32;3.13;;;3.00;99.90;;;;;;5023896;28;20486;-78
2021/05/08 00:49:01;;;;;;;4.30;3.30;;;2.90;99.90;;;;;;5046498;28;20026;-78
2021/05/08 00:51:27;;;;;;;6.05;3.30;;;2.80;99.90;;;;;;5024159;28;20530;-78
2021/05/08 00:53:53;;;;;;;4.95;2.83;;;2.80;99.90;;;;;;5026757;28;20120;-77
2021/05/08 00:56:20;;;;;;;5.68;3.40;;;2.70;99.90;;;;;;5013458;28;20079;-78
2021/05/08 00:58:46;;;;;;;5.32;2.90;;;2.80;99.90;;;;;;5027857;28;20025;-78
2021/05/08 01:01:12;;;;;;;8.15;3.20;;;2.80;99.90;;;;;;5027885;28;20080;-78
2021/05/08 01:03:37;;;;;;;5.35;3.30;;;2.90;99.90;;;;;;5026035;28;20041;-78
2021/05/08 01:06:04;;;;;;;7.38;3.65;;;2.90;99.90;;;;;;5032186;28;20331;-78
2021/05/08 01:08:31;;;;;;;7.95;3.15;;;3.00;99.90;;;;;;5024858;28;20037;-77
2021/05/08 01:10:56;;;;;;;6.05;3.85;;;3.00;99.90;;;;;;5026948;28;20026;-77
2021/05/08 01:13:26;;;;;;;6.35;3.22;;;2.90;99.90;;;;;;5026512;28;20038;-78
2021/05/08 01:15:52;;;;;;;6.20;3.38;;;3.00;99.90;;;;;;5024334;28;20049;-77
2021/05/08 01:18:18;;;;;;;5.75;3.17;;;2.90;99.90;;;;;;5026695;28;20029;-77
2021/05/08 01:20:44;;;;;;;8.27;4.88;;;2.90;99.90;;;;;;5024808;28;20033;-77
2021/05/08 01:23:10;;;;;;;6.03;4.38;;;2.80;99.90;;;;;;5027124;28;20030;-78
2021/05/08 01:25:36;;;;;;;7.85;4.40;;;2.70;99.90;;;;;;5025379;28;20040;-78
2021/05/08 01:28:02;;;;;;;6.47;4.30;;;2.60;99.90;;;;;;5024671;28;20057;-78
2021/05/08 01:30:37;;;;;;;6.05;3.60;;;2.70;99.90;;;;;;5026865;28;20022;-78
2021/05/08 01:33:08;;;;;;;6.35;3.53;;;2.70;99.90;;;;;;5025868;28;20064;-78
2021/05/08 01:35:35;;;;;;;4.93;3.38;;;2.70;99.90;;;;;;5029132;28;20021;-78
2021/05/08 01:38:02;;;;;;;5.63;3.17;;;2.70;99.90;;;;;;5027313;28;20054;-78
2021/05/08 01:40:34;;;;;;;7.00;4.05;;;2.70;99.90;;;;;;5025128;28;20029;-78
2021/05/08 01:43:00;;;;;;;8.18;3.42;;;2.60;99.90;;;;;;5013111;28;20028;-78
2021/05/08 01:45:28;;;;;;;6.03;3.30;;;2.60;99.90;;;;;;5028616;28;20026;-77
2021/05/08 01:47:54;;;;;;;6.00;3.55;;;2.50;99.90;;;;;;5028873;28;20033;-78
2021/05/08 01:50:23;;;;;;;5.63;4.35;;;2.50;99.90;;;;;;5011956;28;20030;-78
2021/05/08 01:52:49;;;;;;;7.32;3.90;;;2.40;99.90;;;;;;5026891;28;20132;-78
2021/05/08 01:55:18;;;;;;;6.97;4.20;;;2.40;99.90;;;;;;5029059;28;20026;-78
2021/05/08 01:57:47;;;;;;;7.65;4.75;;;2.40;99.90;;;;;;5026279;28;20060;-77
2021/05/08 02:00:19;;;;;;;6.97;4.13;;;2.30;99.90;;;;;;5024858;28;20022;-78
2021/05/08 02:02:48;;;;;;;5.97;3.85;;;2.30;99.90;;;;;;5029139;28;20573;-77
2021/05/08 02:05:19;;;;;;;7.50;4.40;;;2.40;99.90;;;;;;5015954;28;20067;-78
2021/05/08 02:07:49;;;;;;;6.25;3.70;;;2.50;99.90;;;;;;5028761;28;20034;-78
2021/05/08 02:10:17;;;;;;;6.88;4.50;;;2.40;99.90;;;;;;5024128;28;20032;-78
2021/05/08 02:12:44;;;;;;;8.40;4.07;;;2.50;99.90;;;;;;5026875;28;20030;-78
2021/05/08 02:15:14;;;;;;;6.43;3.90;;;2.60;99.90;;;;;;5025325;28;20026;-78
2021/05/08 02:17:41;;;;;;;7.35;4.05;;;2.60;99.90;;;;;;4997113;28;20066;-78
2021/05/08 02:20:11;;;;;;;6.22;4.30;;;2.70;99.90;;;;;;5036350;28;20022;-78
2021/05/08 02:22:38;;;;;;;8.82;4.43;;;2.70;99.90;;;;;;5034773;28;20022;-78
2021/05/08 02:25:06;;;;;;;8.45;4.25;;;2.80;99.90;;;;;;5015772;28;20096;-77
2021/05/08 02:27:33;;;;;;;6.28;4.35;;;2.80;99.90;;;;;;5028696;28;20768;-78
2021/05/08 02:29:59;;;;;;;10.32;5.60;;;2.80;99.90;;;;;;5028487;28;20025;-78
2021/05/08 02:32:26;;;;;;;7.90;5.13;;;2.80;99.90;;;;;;5028454;28;20033;-78
2021/05/08 02:34:51;;;;;;;7.10;4.35;;;2.90;99.90;;;;;;5028442;28;20026;-78
2021/05/08 02:37:17;;;;;;;7.82;4.50;;;2.90;99.90;;;;;;5025589;28;20022;-78
2021/05/08 02:39:44;;;;;;;9.15;5.65;;;2.90;99.90;;;;;;5019854;28;20021;-78
2021/05/08 02:42:09;;;;;;;8.07;5.30;;;3.00;99.90;;;;;;5025861;28;20049;-78
2021/05/08 02:44:35;;;;;;;8.40;4.93;;;3.00;99.90;;;;;;5022993;28;20028;-78
2021/05/08 02:47:01;;;;;;;9.10;5.30;;;3.00;99.90;;;;;;5025575;28;20089;-78
2021/05/08 02:49:26;;;;;;;7.32;5.22;;;3.00;99.90;;;;;;5025592;28;20030;-78
2021/05/08 02:51:52;;;;;;;9.10;5.60;;;3.00;99.90;;;;;;5024414;28;20046;-78
2021/05/08 02:54:18;;;;;;;7.95;5.13;;;3.00;99.90;;;;;;5046017;28;20025;-78
2021/05/08 02:56:44;;;;;;;9.00;5.05;;;3.00;99.90;;;;;;5022853;28;20030;-78
2021/05/08 02:59:09;;;;;;;11.80;5.43;;;3.10;99.90;;;;;;5025921;28;20063;-78
2021/05/08 03:01:35;;;;;;;8.93;5.15;;;3.20;99.90;;;;;;5025758;28;20026;-78
2021/05/08 03:04:01;;;;;;;9.35;5.75;;;3.30;99.90;;;;;;5026105;28;20034;-77
2021/05/08 03:06:27;;;;;;;9.20;5.43;;;3.30;99.90;;;;;;5029991;28;20036;-78
2021/05/08 03:08:53;;;;;;;9.10;5.45;;;3.30;99.90;;;;;;5024952;28;20026;-78
2021/05/08 03:11:19;;;;;;;8.80;5.13;;;3.20;99.90;;;;;;5023964;28;20018;-78
2021/05/08 03:13:47;;;;;;;7.57;5.28;;;3.20;99.90;;;;;;5025605;28;20037;-78
2021/05/08 03:16:12;;;;;;;8.10;5.35;;;3.30;99.90;;;;;;5024923;28;20125;-78
2021/05/08 03:18:40;;;;;;;7.80;4.53;;;3.30;99.90;;;;;;5027474;28;20026;-77
2021/05/08 03:21:06;;;;;;;8.52;5.75;;;3.40;99.90;;;;;;5025652;28;20052;-78
2021/05/08 03:23:31;;;;;;;8.43;5.43;;;3.40;99.90;;;;;;5025796;28;20390;-78
2021/05/08 03:25:58;;;;;;;7.53;5.38;;;3.40;99.90;;;;;;5027540;28;20098;-77
2021/05/08 03:28:24;;;;;;;8.07;5.57;;;3.40;99.90;;;;;;5026045;28;20030;-78
2021/05/08 03:30:50;;;;;;;11.02;5.60;;;3.50;99.90;;;;;;5009419;28;20033;-78
2021/05/08 03:33:15;;;;;;;8.45;6.43;;;3.50;99.90;;;;;;5025694;28;20034;-78
2021/05/08 03:35:41;;;;;;;10.20;5.35;;;3.50;99.90;;;;;;5045098;28;20044;-78
2021/05/08 03:38:08;;;;;;;9.15;5.65;;;3.50;99.90;;;;;;5025942;28;20517;-78
2021/05/08 03:40:33;;;;;;;7.38;4.80;;;3.50;99.90;;;;;;5044603;28;20086;-78
2021/05/08 03:42:59;;;;;;;10.82;5.75;;;3.60;99.90;;;;;;5044950;28;20060;-77
2021/05/08 03:45:25;;;;;;;7.18;5.22;;;3.60;99.90;;;;;;5044995;28;20026;-78
2021/05/08 03:47:50;;;;;;;9.52;5.88;;;3.60;99.90;;;;;;5044733;28;20018;-78
2021/05/08 03:50:16;;;;;;;6.95;4.95;;;3.50;99.90;;;;;;5026224;28;20363;-78
2021/05/08 03:52:42;;;;;;;8.38;4.75;;;3.50;99.90;;;;;;5025996;28;20032;-78
2021/05/08 03:55:08;;;;;;;7.40;5.15;;;3.50;99.90;;;;;;5026409;28;20033;-78
2021/05/08 03:57:33;;;;;;;8.85;4.78;;;3.50;99.90;;;;;;5044850;28;20022;-78
2021/05/08 03:59:59;;;;;;;8.52;5.60;;;3.40;99.90;;;;;;5025631;28;20095;-78
2021/05/08 04:02:25;;;;;;;7.93;5.13;;;3.40;99.90;;;;;;5044669;28;20041;-78
2021/05/08 04:05:11;;;;;;;9.20;5.00;;;3.20;99.90;;;;;;5045993;28;20034;-78
2021/05/08 04:07:36;;;;;;;8.95;6.05;;;3.10;99.90;;;;;;4983086;28;20038;-77
2021/05/08 04:10:03;;;;;;;6.50;4.47;;;3.10;99.90;;;;;;4982795;28;20043;-78
2021/05/08 04:12:28;;;;;;;8.90;5.13;;;3.10;99.90;;;;;;4966551;28;20055;-78
2021/05/08 04:14:54;;;;;;;8.90;5.13;;;3.20;99.90;;;;;;4982941;28;20058;-78
2021/05/08 04:17:19;;;;;;;9.23;5.13;;;3.30;99.90;;;;;;4982344;28;20057;-78
2021/05/08 04:19:45;;;;;;;9.05;5.85;;;3.30;99.90;;;;;;4977886;28;20177;-78
2021/05/08 04:22:11;;;;;;;9.25;5.45;;;3.20;99.90;;;;;;4984021;28;20031;-78
2021/05/08 04:24:36;;;;;;;9.35;5.70;;;3.20;99.90;;;;;;4985355;28;20107;-78
2021/05/08 04:27:02;;;;;;;8.10;5.18;;;3.20;99.90;;;;;;4986970;28;20042;-77
2021/05/08 04:29:28;;;;;;;6.95;4.53;;;3.20;99.90;;;;;;4987828;28;20026;-78
2021/05/08 04:31:53;;;;;;;7.95;5.05;;;3.10;99.90;;;;;;4986415;28;20073;-78
2021/05/08 04:34:19;;;;;;;7.38;4.85;;;3.20;99.90;;;;;;4986531;28;20034;-78
2021/05/08 04:36:45;;;;;;;9.27;5.20;;;3.20;99.90;;;;;;4967271;28;20301;-78
2021/05/08 04:39:12;;;;;;;5.88;4.68;;;3.20;99.90;;;;;;4986450;28;20041;-77
2021/05/08 04:41:38;;;;;;;8.02;5.60;;;3.30;99.90;;;;;;4986381;28;20035;-78
2021/05/08 04:44:03;;;;;;;9.77;5.10;;;3.40;99.90;;;;;;4995137;28;20046;-78
2021/05/08 04:46:29;;;;;;;8.02;5.07;;;3.40;99.90;;;;;;5013267;28;20166;-78
2021/05/08 04:48:55;;;;;;;7.72;4.90;;;3.50;99.90;;;;;;5028895;28;20089;-77
2021/05/08 04:51:21;;;;;;;8.35;5.30;;;3.50;99.90;;;;;;5046296;28;20040;-78
2021/05/08 04:53:50;;;;;;;7.63;5.13;;;3.60;99.90;;;;;;5047279;28;20045;-78
2021/05/08 04:56:16;;;;;;;7.03;4.72;;;3.80;99.90;;;;;;5029405;28;20025;-78
2021/05/08 04:58:43;;;;;;;8.20;5.07;;;4.00;99.90;;;;;;5026774;28;20061;-78
2021/05/08 05:01:09;;;;;;;7.07;4.65;;;4.20;99.90;;;;;;5026827;28;20110;-77
2021/05/08 05:03:36;;;;;;;9.35;5.55;;;4.40;99.90;;;;;;5030276;28;20041;-78
2021/05/08 05:06:02;;;;;;;7.20;4.68;;;4.60;99.90;;;;;;5049899;28;20029;-77
2021/05/08 05:08:28;;;;;;;8.57;4.60;;;4.80;99.90;;;;;;5028620;28;20040;-78
2021/05/08 05:10:55;;;;;;;9.73;5.45;;;5.00;99.90;;;;;;5047158;28;20033;-78
2021/05/08 05:13:22;;;;;;;8.27;4.78;;;5.10;99.90;;;;;;5028840;28;20037;-78
2021/05/08 05:15:48;;;;;;;7.57;4.72;;;5.20;99.90;;;;;;5028818;28;20147;-78
2021/05/08 05:18:14;;;;;;;7.20;4.13;;;5.40;99.90;;;;;;5046608;28;20504;-78
2021/05/08 05:20:40;;;;;;;9.93;4.90;;;5.40;99.90;;;;;;5026349;28;20017;-78
2021/05/08 05:23:06;;;;;;;9.07;4.93;;;5.40;99.90;;;;;;5026508;28;20030;-78
2021/05/08 05:25:32;;;;;;;9.20;4.47;;;5.40;99.90;;;;;;5047069;28;20048;-78
2021/05/08 05:27:58;;;;;;;6.95;4.35;;;5.50;99.90;;;;;;5026467;28;20482;-78
2021/05/08 05:30:23;;;;;;;6.72;4.40;;;5.60;99.90;;;;;;5026720;28;20362;-78
2021/05/08 05:32:49;;;;;;;5.57;4.00;;;5.70;99.90;;;;;;5026353;28;20045;-78
2021/05/08 05:35:15;;;;;;;7.03;4.05;;;5.80;99.90;;;;;;5025527;28;20022;-78
2021/05/08 05:37:41;;;;;;;6.22;3.83;;;5.90;99.90;;;;;;5026290;28;20093;-79
2021/05/08 05:40:07;;;;;;;7.75;4.53;;;6.00;99.90;;;;;;5023601;28;20022;-78
2021/05/08 05:42:33;;;;;;;6.47;4.07;;;6.10;99.90;;;;;;5026805;28;20026;-78
2021/05/08 05:44:59;;;;;;;8.25;4.15;;;6.20;99.90;;;;;;5028554;28;20101;-78
2021/05/08 05:47:27;;;;;;;8.23;3.78;;;6.20;99.90;;;;;;5046411;28;20470;-78
2021/05/08 05:49:54;;;;;;;6.32;4.25;;;6.30;99.90;;;;;;5046044;28;20033;-78
2021/05/08 05:52:21;;;;;;;5.75;3.65;;;6.30;99.90;;;;;;5027359;28;20097;-78
2021/05/08 05:54:51;;;;;;;8.60;4.28;;;6.40;99.90;;;;;;5046185;28;20101;-78
2021/05/08 05:57:17;;;;;;;6.72;3.85;;;6.60;99.90;;;;;;5046361;28;20105;-78
2021/05/08 05:59:44;;;;;;;6.60;3.65;;;6.70;99.90;;;;;;5024071;28;20045;-78
2021/05/08 06:02:11;;;;;;;6.15;4.55;;;6.90;99.90;;;;;;5043341;28;20399;-78
2021/05/08 06:04:37;;;;;;;7.93;4.20;;;6.90;99.90;;;;;;5011656;28;20031;-78
2021/05/08 06:07:03;;;;;;;5.45;3.63;;;7.00;99.90;;;;;;5045841;28;20056;-78
2021/05/08 06:09:29;;;;;;;5.00;3.10;;;7.10;99.90;;;;;;5027719;28;20120;-79
2021/05/08 06:11:57;;;;;;;7.78;4.65;;;7.20;99.90;;;;;;5026469;28;20101;-78
2021/05/08 06:14:27;;;;;;;6.82;3.75;;;7.30;99.90;;;;;;5027923;28;20071;-78
2021/05/08 06:16:55;;;;;;;;;;;7.40;99.90;;;;;;5026357;28;20045;-78
2021/05/08 06:19:22;;;;;;;5.65;3.58;;;7.50;99.90;;;;;;5025880;28;19909;-78
2021/05/08 06:21:47;;;;;;;5.30;3.78;;;7.70;99.90;;;;;;5009873;28;20478;-78
2021/05/08 06:24:13;;;;;;;7.40;4.53;;;7.90;99.90;;;;;;5025952;28;20037;-78
2021/05/08 06:26:38;;;;;;;6.72;3.55;;;8.10;99.90;;;;;;5026035;28;20034;-78
2021/05/08 06:29:04;;;;;;;7.82;4.97;;;8.30;99.90;;;;;;5023895;28;20047;-78
2021/05/08 06:31:30;;;;;;;9.32;5.43;;;8.40;99.90;;;;;;5045902;28;20029;-78
2021/05/08 06:33:56;;;;;;;8.63;5.20;;;8.40;99.90;;;;;;5026523;28;20052;-78
2021/05/08 06:36:22;;;;;;;8.85;5.20;;;8.40;99.90;;;;;;5045275;28;20014;-79
2021/05/08 06:38:48;;;;;;;8.60;6.00;;;8.40;99.90;;;;;;5010932;28;20065;-78
2021/05/08 06:41:14;;;;;;;9.00;6.43;;;8.50;99.90;;;;;;5045550;28;20032;-78
2021/05/08 06:43:39;;;;;;;12.18;6.60;;;8.50;99.90;;;;;;5024967;28;20029;-78
2021/05/08 06:46:07;;;;;;;8.70;5.65;;;8.50;99.90;;;;;;5045119;28;20031;-76
2021/05/08 06:48:32;;;;;;;8.65;5.97;;;8.60;99.90;;;;;;5026332;28;20117;-78
2021/05/08 06:50:58;;;;;;;8.10;5.63;;;8.70;99.90;;;;;;5044657;28;20018;-79
2021/05/08 06:53:23;;;;;;;7.60;5.32;;;8.80;99.90;;;;;;5010917;28;20428;-78
2021/05/08 06:55:49;;;;;;;8.95;6.57;;;8.90;99.90;;;;;;5027061;28;20083;-80
2021/05/08 06:58:14;;;;;;;7.80;5.32;;;9.00;99.90;;;;;;4998860;28;20042;-80
2021/05/08 07:00:41;;;;;;;11.05;6.97;;;9.10;99.90;;;;;;5045128;28;20029;-80
2021/05/08 07:03:07;;;;;;;13.20;8.60;;;9.10;99.90;;;;;;5003315;28;20049;-80
2021/05/08 07:05:33;;;;;;;9.80;6.38;;;9.10;99.90;;;;;;5033642;23;21114;-80
2021/05/08 07:08:00;;;;;;;10.40;6.15;;;9.10;99.90;;;;;;5007320;28;20049;-80
2021/05/08 07:10:26;;;;;;;8.45;6.35;;;9.20;99.90;;;;;;5005373;28;20077;-81
2021/05/08 07:12:51;;;;;;;7.35;5.55;;;9.20;99.90;;;;;;5023092;28;20043;-80
2021/05/08 07:15:17;;;;;;;8.90;5.53;;;9.30;99.90;;;;;;5005378;28;20064;-80
2021/05/08 07:17:42;;;;;;;11.80;6.65;;;9.30;99.90;;;;;;5015947;28;20038;-80
2021/05/08 07:20:09;;;;;;;8.75;5.90;;;9.40;99.90;;;;;;5016053;28;20018;-80
2021/05/08 07:22:34;;;;;;;7.10;5.13;;;9.50;99.90;;;;;;5024404;28;20022;-79
2021/05/08 07:25:00;;;;;;;10.52;6.15;;;9.50;99.90;;;;;;5021301;28;20338;-80
2021/05/08 07:27:26;;;;;;;10.23;6.05;;;9.60;99.90;;;;;;5021777;28;20021;-80
2021/05/08 07:29:53;;;;;;;9.35;5.22;;;9.70;99.90;;;;;;5004342;28;20037;-80
2021/05/08 07:32:19;;;;;;;9.75;6.28;;;9.90;99.90;;;;;;5021640;28;20037;-80
2021/05/08 07:34:45;;;;;;;9.27;6.25;;;10.00;99.90;;;;;;5006363;28;20466;-80
2021/05/08 07:37:10;;;;;;;7.00;4.72;;;10.20;99.90;;;;;;5023262;28;20040;-81
2021/05/08 07:39:36;;;;;;;8.50;4.90;;;10.20;99.90;;;;;;5023523;28;20030;-80
2021/05/08 07:42:01;;;;;;;11.02;6.15;;;10.30;99.90;;;;;;5006232;28;20459;-80
2021/05/08 07:44:30;;;;;;;8.52;5.28;;;10.30;99.90;;;;;;5022107;28;20029;-80
2021/05/08 07:49:48;;;;;;;8.88;5.93;;;10.30;99.90;;;;;;4995805;28;20572;-80
2021/05/08 07:52:14;;;;;;;7.93;6.03;;;10.40;99.90;;;;;;5016572;28;20034;-80
2021/05/08 07:54:39;;;;;;;20.70;6.72;;;10.50;99.90;;;;;;5010220;28;20066;-79
2021/05/08 07:57:05;;;;;;;8.93;4.88;;;10.70;99.90;;;;;;5017726;28;20481;-80
2021/05/08 07:59:31;;;;;;;8.55;5.72;;;10.80;99.90;;;;;;5001793;28;20089;-80
2021/05/08 08:01:56;;;;;;;7.35;5.07;;;10.80;99.90;;;;;;4986237;28;20022;-80
2021/05/08 08:04:22;;;;;;;7.18;5.15;;;10.80;99.90;;;;;;4970938;28;20026;-80
2021/05/08 08:06:47;;;;;;;9.90;4.93;;;10.80;99.90;;;;;;4986607;28;20030;-80
2021/05/08 08:09:13;;;;;;;6.95;4.55;;;10.90;99.90;;;;;;5002806;28;20049;-80
2021/05/08 08:11:39;;;;;;;7.07;4.28;;;10.90;99.90;;;;;;4972715;28;20039;-80
2021/05/08 08:14:04;;;;;;;6.20;4.35;;;11.00;99.90;;;;;;4985007;28;20061;-80
2021/05/08 08:16:30;;;;;;;28.38;7.13;;;10.80;99.90;;;;;;4974063;28;20089;-80
2021/05/08 08:18:56;;;;;;;13.27;5.57;;;10.80;99.90;;;;;;4988502;28;20073;-80
2021/05/08 08:21:23;;;;;;;6.85;4.57;;;10.80;99.90;;;;;;5002878;28;20027;-80
2021/05/08 08:23:48;;;;;;;10.95;4.85;;;10.90;99.90;;;;;;5016911;28;20034;-80
2021/05/08 08:26:14;;;;;;;6.50;4.00;;;11.00;99.90;;;;;;5001174;28;20153;-82
2021/05/08 08:28:40;;;;;;;6.25;3.65;;;11.00;99.90;;;;;;4992311;28;20504;-82
2021/05/08 08:31:07;;;;;;;8.55;4.20;;;11.00;99.90;;;;;;4962271;28;20106;-82
2021/05/08 08:33:33;;;;;;;11.27;4.65;;;11.20;99.90;;;;;;4998009;28;20058;-82
2021/05/08 08:35:58;;;;;;;10.20;5.93;;;11.00;99.90;;;;;;4979727;28;20556;-81
2021/05/08 08:38:24;;;;;;;15.57;5.53;;;11.00;99.90;;;;;;4959709;28;20098;-82
2021/05/08 08:40:51;;;;;;;6.68;3.92;;;11.10;99.90;;;;;;4999702;28;20057;-81
2021/05/08 08:43:16;;;;;;;6.38;3.50;;;11.40;99.90;;;;;;5000455;28;20402;-84
2021/05/08 08:45:43;;;;;;;7.80;4.57;;;11.30;99.90;;;;;;5014740;28;20026;-82
2021/05/08 08:48:09;;;;;;;7.30;3.60;;;11.40;99.90;;;;;;4993020;28;20174;-81
2021/05/08 08:50:39;;;;;;;4.43;3.38;;;11.70;99.90;;;;;;4964544;28;20038;-83
2021/05/08 08:53:06;;;;;;;8.52;4.20;;;11.50;99.90;;;;;;5003752;28;20128;-82
2021/05/08 08:55:33;;;;;;;6.97;3.67;;;11.50;99.90;;;;;;4993417;28;20038;-84
2021/05/08 08:58:03;;;;;;;7.65;3.65;;;11.80;99.90;;;;;;5003263;28;20046;-81
2021/05/08 09:00:29;;;;;;;5.15;3.15;;;11.80;99.90;;;;;;5003133;28;20062;-80
2021/05/08 09:02:55;;;;;;;5.82;3.22;;;11.90;99.90;;;;;;5003600;28;20049;-82
2021/05/08 09:05:23;;;;;;;5.38;3.17;;;11.90;99.90;;;;;;5011349;28;20023;-81
2021/05/08 09:07:50;;;;;;;4.72;3.20;;;12.00;99.90;;;;;;5014073;28;20030;-83
2021/05/08 09:10:27;;;;;;;6.75;3.47;;;12.00;99.90;;;;;;5014929;28;20046;-82
2021/05/08 09:12:55;;;;;;;5.35;2.97;;;12.00;99.90;;;;;;5018754;28;20043;-82
2021/05/08 09:15:35;;;;;;;5.65;2.50;;;12.40;99.90;;;;;;5003902;28;20026;-82
2021/05/08 09:18:02;;;;;;;7.65;2.85;;;12.70;99.90;;;;;;4981455;28;20090;-83
2021/05/08 09:20:42;;;;;;;4.72;2.28;;;12.80;99.90;;;;;;5006513;28;20019;-82
2021/05/08 09:23:20;;;;;;;9.15;1.98;;;12.70;99.90;;;;;;5004535;28;20030;-82
2021/05/08 09:26:05;;;;;;;6.40;1.92;;;12.90;99.90;;;;;;5021046;28;20405;-82
2021/05/08 09:28:33;;;;;;;4.78;2.67;;;13.00;99.90;;;;;;5016164;28;20045;-82
2021/05/08 09:30:59;;;;;;;5.88;2.72;;;13.40;99.90;;;;;;4990131;28;20035;-83
2021/05/08 09:33:27;;;;;;;4.93;2.05;;;13.40;99.90;;;;;;5000543;28;20073;-83
2021/05/08 09:36:10;;;;;;;3.72;1.70;;;13.60;99.90;;;;;;4997912;28;20026;-82
2021/05/08 09:38:44;;;;;;;4.63;2.10;;;13.60;99.90;;;;;;5005453;28;20065;-83
2021/05/08 09:41:12;;;;;;;3.90;2.30;;;13.50;99.90;;;;;;5018857;28;20022;-82
2021/05/08 09:43:38;;;;;;;5.88;1.48;;;13.80;99.90;;;;;;4974581;28;20034;-82
2021/05/08 09:46:05;;;;;;;3.95;1.73;;;13.80;99.90;;;;;;5016603;28;20042;-82
2021/05/08 09:48:38;;;;;;;2.45;1.10;;;13.80;99.90;;;;;;5007745;28;20049;-82
2021/05/08 09:51:24;;;;;;;4.75;1.55;;;13.90;99.90;;;;;;4993412;28;20034;-82
2021/05/08 09:53:55;;;;;;;3.38;1.70;;;13.90;99.90;;;;;;4993155;28;20042;-82
2021/05/08 09:56:41;;;;;;;3.28;1.17;;;13.70;99.90;;;;;;5019630;28;20030;-82
2021/05/08 09:59:38;;;;;;;3.15;1.33;;;13.70;99.90;;;;;;5003846;28;20026;-82
2021/05/08 10:02:08;;;;;;;3.28;1.38;;;13.70;99.90;;;;;;4973323;28;20038;-82
2021/05/08 10:05:07;;;;;;;3.97;1.30;;;13.70;99.90;;;;;;5017229;28;20040;-82
2021/05/08 10:07:33;;;;;;;4.70;1.17;;;13.70;99.90;;;;;;4961885;28;20424;-84
2021/05/08 10:09:59;;;;;;;4.80;1.77;;;13.80;99.90;;;;;;4942763;29;20036;-84
2021/05/08 10:12:27;;;;;;;4.60;1.73;;;13.80;99.90;;;;;;4942573;29;20051;-83
2021/05/08 10:14:55;;;;;;;3.42;1.33;;;13.90;99.90;;;;;;4951816;29;20046;-83
2021/05/08 10:17:25;;;;;;;5.32;1.33;;;13.80;99.90;;;;;;4946822;29;20027;-83
2021/05/08 10:19:54;;;;;;;2.70;1.10;;;14.00;99.90;;;;;;4959248;28;20044;-83
2021/05/08 10:22:24;;;;;;;2.10;1.02;;;14.10;99.90;;;;;;4935931;29;20082;-83
2021/05/08 10:24:50;;;;;;;3.53;0.90;;;14.20;99.90;;;;;;4952476;29;20052;-83
2021/05/08 10:27:16;;;;;;;6.93;2.47;;;14.30;99.90;;;;;;4948905;29;20030;-83
2021/05/08 10:29:47;;;;;;;3.78;1.27;;;14.10;99.90;;;;;;4972038;28;20040;-83
2021/05/08 10:32:22;;;;;;;3.83;1.15;;;14.30;99.90;;;;;;4931386;29;20036;-83
2021/05/08 10:34:52;;;;;;;3.10;1.15;;;14.50;99.90;;;;;;4944991;29;20447;-80
2021/05/08 10:37:19;;;;;;;3.38;1.00;;;14.40;99.90;;;;;;4944811;29;20527;-83
2021/05/08 10:40:12;;;;;;;3.25;1.42;;;14.50;99.90;;;;;;4958460;28;20055;-83
2021/05/08 10:42:49;;;;;;;3.10;1.33;;;14.40;99.90;;;;;;4961910;28;20058;-83
2021/05/08 10:45:18;;;;;;;2.25;0.90;;;14.60;99.90;;;;;;5013169;28;20034;-83
2021/05/08 10:47:52;;;;;;;2.55;1.05;;;14.60;99.90;;;;;;4994095;28;20092;-83
2021/05/08 10:50:26;;;;;;;1.95;0.80;;;14.70;99.90;;;;;;5012777;28;20033;-84
2021/05/08 10:52:58;;;;;;;2.95;1.10;;;15.00;99.90;;;;;;5007295;28;20039;-84
2021/05/08 10:55:24;;;;;;;2.97;0.85;;;15.00;99.90;;;;;;5019160;28;20073;-84
2021/05/08 10:58:20;;;;;;;5.10;1.20;;;15.20;99.90;;;;;;5015377;28;20042;-82
2021/05/08 11:00:47;;;;;;;1.95;0.70;;;14.90;99.90;;;;;;5021191;28;20102;-84
2021/05/08 11:03:14;;;;;;;1.80;0.60;;;14.80;99.90;;;;;;4999577;28;20023;-83
2021/05/08 11:06:03;;;;;;;2.38;0.80;;;14.80;99.90;;;;;;5016595;28;20060;-82
2021/05/08 11:08:29;;;;;;;2.92;0.70;;;14.50;99.90;;;;;;5002845;28;20059;-83
2021/05/08 11:11:00;;;;;;;2.30;0.80;;;14.30;99.90;;;;;;5004826;28;20046;-83
2021/05/08 11:13:28;;;;;;;2.80;0.57;;;14.20;99.90;;;;;;5007338;28;20038;-82
2021/05/08 11:15:54;;;;;;;3.20;0.70;;;14.30;99.90;;;;;;5013033;28;20522;-82
2021/05/08 11:18:32;;;;;;;3.60;0.68;;;14.20;99.90;;;;;;5011405;28;20034;-83
2021/05/08 11:21:10;;;;;;;1.85;0.73;;;14.00;99.90;;;;;;4993810;28;20038;-83
2021/05/08 11:23:59;;;;;;;2.33;0.50;;;13.90;99.90;;;;;;5020865;28;20030;-83
2021/05/08 11:26:25;;;;;;;1.23;0.60;;;13.90;99.90;;;;;;5020901;28;20034;-82
2021/05/08 11:29:19;;;;;;;1.80;0.50;;;13.90;99.90;;;;;;5001516;28;20035;-81
2021/05/08 11:31:50;;;;;;;2.05;0.50;;;14.00;99.90;;;;;;5004619;28;20550;-83
2021/05/08 11:34:15;;;;;;;2.17;0.50;;;14.00;99.90;;;;;;4993315;28;20034;-82
2021/05/08 11:36:49;;;;;;;2.08;0.50;;;14.10;99.90;;;;;;5009891;28;20664;-84
2021/05/08 11:39:17;;;;;;;1.85;0.50;;;14.20;99.90;;;;;;5008198;28;20073;-83
2021/05/08 11:41:44;;;;;;;2.13;0.65;;;13.90;99.90;;;;;;4967170;28;20030;-81
2021/05/08 11:44:28;;;;;;;1.33;0.50;;;13.50;99.90;;;;;;5003771;28;20485;-82
2021/05/08 11:46:59;;;;;;;1.10;0.45;;;13.50;99.90;;;;;;5003953;28;20053;-82
2021/05/08 11:49:30;;;;;;;1.70;0.60;;;13.30;99.90;;;;;;5002552;28;20050;-81
2021/05/08 11:51:57;;;;;;;4.18;0.57;;;13.20;99.90;;;;;;4984840;28;20030;-81
2021/05/08 11:54:25;;;;;;;3.67;0.50;;;13.20;99.90;;;;;;4962894;28;20045;-82
2021/05/08 11:56:50;;;;;;;1.67;0.50;;;13.20;99.90;;;;;;5019753;28;20034;-82
2021/05/08 11:59:32;;;;;;;1.00;0.30;;;13.40;99.90;;;;;;4959972;28;20045;-82
2021/05/08 12:02:19;;;;;;;2.22;0.52;;;13.30;99.90;;;;;;4999881;28;20057;-82
2021/05/08 12:05:11;;;;;;;2.65;0.60;;;13.10;99.90;;;;;;5018678;28;20037;-83
2021/05/08 12:07:41;;;;;;;1.25;0.45;;;13.10;99.90;;;;;;4918014;29;20447;-81
2021/05/08 12:10:17;;;;;;;2.13;0.40;;;12.90;99.90;;;;;;4921278;29;20044;-81
2021/05/08 12:12:55;;;;;;;4.85;0.50;;;12.80;99.90;;;;;;4914636;29;20052;-81
2021/05/08 12:15:25;;;;;;;3.67;0.40;;;12.70;99.90;;;;;;4921993;29;20040;-81
2021/05/08 12:17:53;;;;;;;4.22;0.70;;;12.70;99.90;;;;;;4922873;29;20087;-82
2021/05/08 12:20:20;;;;;;;1.30;0.35;;;12.60;99.90;;;;;;4909486;29;20055;-82
2021/05/08 12:22:47;;;;;;;2.72;0.40;;;12.50;99.90;;;;;;4922806;29;20036;-82
2021/05/08 12:25:26;;;;;;;1.90;0.57;;;12.10;99.90;;;;;;4922742;29;20054;-83
2021/05/08 12:28:13;;;;;;;1.48;0.40;;;12.10;99.90;;;;;;4905327;29;20104;-82
2021/05/08 12:30:40;;;;;;;1.10;0.40;;;12.20;99.90;;;;;;4915541;29;20046;-81
2021/05/08 12:33:17;;;;;;;2.40;0.57;;;12.10;99.90;;;;;;4908757;29;20032;-81
2021/05/08 12:35:43;;;;;;;1.00;0.40;;;12.10;99.90;;;;;;4924476;29;20032;-83
2021/05/08 12:38:18;;;;;;;1.27;0.50;;;11.90;99.90;;;;;;4923927;29;20104;-81
2021/05/08 12:40:45;;;;;;;1.27;0.40;;;11.90;99.90;;;;;;4923652;29;20035;-80
2021/05/08 12:43:25;;;;;;;2.33;0.50;;;11.80;99.90;;;;;;4925556;29;20028;-81
2021/05/08 12:46:11;;;;;;;1.05;0.47;;;11.80;99.90;;;;;;5004647;28;20502;-81
2021/05/08 12:48:43;;;;;;;2.30;0.50;;;11.70;99.90;;;;;;5002874;28;20042;-81
2021/05/08 12:51:28;;;;;;;1.80;0.50;;;11.60;99.90;;;;;;5006389;28;21778;-81
2021/05/08 12:54:19;;;;;;;1.92;0.60;;;11.60;99.90;;;;;;5021282;28;20038;-81
2021/05/08 12:56:45;;;;;;;1.67;0.55;;;11.60;99.90;;;;;;5014173;28;20031;-81
2021/05/08 12:59:11;;;;;;;1.40;0.50;;;11.60;99.90;;;;;;5022703;28;20027;-81
2021/05/08 13:01:40;;;;;;;1.13;0.47;;;11.70;99.90;;;;;;4961428;28;20054;-80
2021/05/08 13:04:06;;;;;;;2.08;0.40;;;11.70;99.90;;;;;;5000239;28;20034;-81